sensor_id;sensor_type;location;lat;lon;timestamp;temperature;humidity
65876;HTU21D;52657;51.128;5.938;2022-09-01T00:00:33;21.30;46.86
65876;HTU21D;52657;51.128;5.938;2022-09-01T00:02:59;21.24;46.97
65876;HTU21D;52657;51.128;5.938;2022-09-01T00:05:24;21.25;47.10
65876;HTU21D;52657;51.128;5.938;2022-09-01T00:07:50;21.27;47.08
65876;HTU21D;52657;51.128;5.938;2022-09-01T00:10:17;21.21;46.89
65876;HTU21D;52657;51.128;5.938;2022-09-01T00:12:42;21.17;47.08
65876;HTU21D;52657;51.128;5.938;2022-09-01T00:15:11;21.19;47.12
65876;HTU21D;52657;51.128;5.938;2022-09-01T00:17:37;21.18;47.06
65876;HTU21D;52657;51.128;5.938;2022-09-01T00:20:04;21.16;47.12
65876;HTU21D;52657;51.128;5.938;2022-09-01T00:22:30;21.09;47.34
65876;HTU21D;52657;51.128;5.938;2022-09-01T00:24:58;21.04;47.42
65876;HTU21D;52657;51.128;5.938;2022-09-01T00:27:24;21.04;47.34
65876;HTU21D;52657;51.128;5.938;2022-09-01T00:29:49;21.03;47.05
65876;HTU21D;52657;51.128;5.938;2022-09-01T00:32:15;20.96;47.13
65876;HTU21D;52657;51.128;5.938;2022-09-01T00:34:41;20.98;47.15
65876;HTU21D;52657;51.128;5.938;2022-09-01T00:37:07;20.95;47.22
65876;HTU21D;52657;51.128;5.938;2022-09-01T00:39:33;20.95;47.50
65876;HTU21D;52657;51.128;5.938;2022-09-01T00:41:59;20.95;47.54
65876;HTU21D;52657;51.128;5.938;2022-09-01T00:44:25;20.99;47.63
65876;HTU21D;52657;51.128;5.938;2022-09-01T00:46:54;20.95;47.54
65876;HTU21D;52657;51.128;5.938;2022-09-01T00:49:38;20.94;47.76
65876;HTU21D;52657;51.128;5.938;2022-09-01T00:52:12;20.87;47.99
65876;HTU21D;52657;51.128;5.938;2022-09-01T00:54:42;20.84;48.11
65876;HTU21D;52657;51.128;5.938;2022-09-01T00:57:10;20.78;47.96
65876;HTU21D;52657;51.128;5.938;2022-09-01T00:59:45;20.70;48.08
65876;HTU21D;52657;51.128;5.938;2022-09-01T01:02:11;20.64;48.28
65876;HTU21D;52657;51.128;5.938;2022-09-01T01:04:37;20.60;48.31
65876;HTU21D;52657;51.128;5.938;2022-09-01T01:07:03;20.58;48.54
65876;HTU21D;52657;51.128;5.938;2022-09-01T01:09:35;20.57;48.52
65876;HTU21D;52657;51.128;5.938;2022-09-01T01:12:04;20.55;48.52
65876;HTU21D;52657;51.128;5.938;2022-09-01T01:14:30;20.50;48.49
65876;HTU21D;52657;51.128;5.938;2022-09-01T01:16:58;20.48;48.63
65876;HTU21D;52657;51.128;5.938;2022-09-01T01:19:44;20.48;48.71
65876;HTU21D;52657;51.128;5.938;2022-09-01T01:22:47;20.51;48.71
65876;HTU21D;52657;51.128;5.938;2022-09-01T01:25:38;20.58;48.46
65876;HTU21D;52657;51.128;5.938;2022-09-01T01:30:35;20.62;48.42
65876;HTU21D;52657;51.128;5.938;2022-09-01T01:33:05;20.63;48.56
65876;HTU21D;52657;51.128;5.938;2022-09-01T01:35:32;20.63;48.55
65876;HTU21D;52657;51.128;5.938;2022-09-01T01:38:00;20.59;48.65
65876;HTU21D;52657;51.128;5.938;2022-09-01T01:40:28;20.58;48.80
65876;HTU21D;52657;51.128;5.938;2022-09-01T01:42:55;20.54;48.80
65876;HTU21D;52657;51.128;5.938;2022-09-01T01:45:24;20.50;48.96
65876;HTU21D;52657;51.128;5.938;2022-09-01T01:47:52;20.46;49.15
65876;HTU21D;52657;51.128;5.938;2022-09-01T01:50:28;20.45;49.31
65876;HTU21D;52657;51.128;5.938;2022-09-01T01:52:59;20.43;49.38
65876;HTU21D;52657;51.128;5.938;2022-09-01T01:55:26;20.39;49.45
65876;HTU21D;52657;51.128;5.938;2022-09-01T01:57:58;20.34;49.69
65876;HTU21D;52657;51.128;5.938;2022-09-01T02:00:29;20.33;49.70
65876;HTU21D;52657;51.128;5.938;2022-09-01T02:02:57;20.34;49.67
65876;HTU21D;52657;51.128;5.938;2022-09-01T02:05:30;20.33;49.76
65876;HTU21D;52657;51.128;5.938;2022-09-01T02:08:00;20.33;49.86
65876;HTU21D;52657;51.128;5.938;2022-09-01T02:10:30;20.33;49.99
65876;HTU21D;52657;51.128;5.938;2022-09-01T02:12:59;20.31;49.96
65876;HTU21D;52657;51.128;5.938;2022-09-01T02:15:31;20.29;50.06
65876;HTU21D;52657;51.128;5.938;2022-09-01T02:17:59;20.28;50.36
65876;HTU21D;52657;51.128;5.938;2022-09-01T02:20:26;20.28;50.47
65876;HTU21D;52657;51.128;5.938;2022-09-01T02:22:58;20.26;50.94
65876;HTU21D;52657;51.128;5.938;2022-09-01T02:25:32;20.18;51.40
65876;HTU21D;52657;51.128;5.938;2022-09-01T02:28:00;20.09;51.74
65876;HTU21D;52657;51.128;5.938;2022-09-01T02:30:29;20.05;51.88
65876;HTU21D;52657;51.128;5.938;2022-09-01T02:32:58;20.02;51.48
65876;HTU21D;52657;51.128;5.938;2022-09-01T02:35:25;20.02;51.30
65876;HTU21D;52657;51.128;5.938;2022-09-01T02:37:56;20.01;51.08
65876;HTU21D;52657;51.128;5.938;2022-09-01T02:40:28;20.02;51.13
65876;HTU21D;52657;51.128;5.938;2022-09-01T02:42:56;20.02;51.16
65876;HTU21D;52657;51.128;5.938;2022-09-01T02:45:27;20.02;51.10
65876;HTU21D;52657;51.128;5.938;2022-09-01T02:47:55;20.00;51.16
65876;HTU21D;52657;51.128;5.938;2022-09-01T02:50:22;19.98;51.30
65876;HTU21D;52657;51.128;5.938;2022-09-01T02:52:50;19.97;51.43
65876;HTU21D;52657;51.128;5.938;2022-09-01T02:55:20;19.95;51.83
65876;HTU21D;52657;51.128;5.938;2022-09-01T02:57:51;19.90;52.09
65876;HTU21D;52657;51.128;5.938;2022-09-01T03:00:23;19.82;52.37
65876;HTU21D;52657;51.128;5.938;2022-09-01T03:02:58;19.77;52.74
65876;HTU21D;52657;51.128;5.938;2022-09-01T03:05:26;19.73;52.84
65876;HTU21D;52657;51.128;5.938;2022-09-01T03:07:56;19.69;52.85
65876;HTU21D;52657;51.128;5.938;2022-09-01T03:10:25;19.67;52.75
65876;HTU21D;52657;51.128;5.938;2022-09-01T03:12:53;19.65;52.60
65876;HTU21D;52657;51.128;5.938;2022-09-01T03:15:20;19.61;52.65
65876;HTU21D;52657;51.128;5.938;2022-09-01T03:17:46;19.57;52.77
65876;HTU21D;52657;51.128;5.938;2022-09-01T03:20:14;19.53;52.87
65876;HTU21D;52657;51.128;5.938;2022-09-01T03:22:41;19.46;52.98
65876;HTU21D;52657;51.128;5.938;2022-09-01T03:25:09;19.41;53.25
65876;HTU21D;52657;51.128;5.938;2022-09-01T03:27:34;19.35;53.46
65876;HTU21D;52657;51.128;5.938;2022-09-01T03:30:03;19.33;53.49
65876;HTU21D;52657;51.128;5.938;2022-09-01T03:32:29;19.26;53.48
65876;HTU21D;52657;51.128;5.938;2022-09-01T03:34:55;19.26;53.68
65876;HTU21D;52657;51.128;5.938;2022-09-01T03:37:22;19.23;53.68
65876;HTU21D;52657;51.128;5.938;2022-09-01T03:39:48;19.18;53.94
65876;HTU21D;52657;51.128;5.938;2022-09-01T03:42:13;19.14;54.17
65876;HTU21D;52657;51.128;5.938;2022-09-01T03:44:50;19.09;54.23
65876;HTU21D;52657;51.128;5.938;2022-09-01T03:47:18;19.08;54.39
65876;HTU21D;52657;51.128;5.938;2022-09-01T03:49:46;19.00;54.67
65876;HTU21D;52657;51.128;5.938;2022-09-01T03:52:14;18.97;54.78
65876;HTU21D;52657;51.128;5.938;2022-09-01T03:54:42;18.97;54.70
65876;HTU21D;52657;51.128;5.938;2022-09-01T03:57:10;18.96;54.64
65876;HTU21D;52657;51.128;5.938;2022-09-01T03:59:36;18.95;54.69
65876;HTU21D;52657;51.128;5.938;2022-09-01T04:02:08;18.96;54.61
65876;HTU21D;52657;51.128;5.938;2022-09-01T04:04:34;18.93;54.62
65876;HTU21D;52657;51.128;5.938;2022-09-01T04:07:00;18.89;54.67
65876;HTU21D;52657;51.128;5.938;2022-09-01T04:09:26;18.87;54.75
65876;HTU21D;52657;51.128;5.938;2022-09-01T04:11:52;18.86;54.71
65876;HTU21D;52657;51.128;5.938;2022-09-01T04:14:19;18.87;54.74
65876;HTU21D;52657;51.128;5.938;2022-09-01T04:16:47;18.86;54.84
65876;HTU21D;52657;51.128;5.938;2022-09-01T04:19:35;18.88;54.87
65876;HTU21D;52657;51.128;5.938;2022-09-01T04:22:05;18.87;54.98
65876;HTU21D;52657;51.128;5.938;2022-09-01T04:24:38;18.88;55.10
65876;HTU21D;52657;51.128;5.938;2022-09-01T04:27:07;18.87;55.27
65876;HTU21D;52657;51.128;5.938;2022-09-01T04:29:36;18.84;55.38
65876;HTU21D;52657;51.128;5.938;2022-09-01T04:32:06;18.81;55.59
65876;HTU21D;52657;51.128;5.938;2022-09-01T04:34:38;18.81;55.65
65876;HTU21D;52657;51.128;5.938;2022-09-01T04:37:09;18.83;55.75
65876;HTU21D;52657;51.128;5.938;2022-09-01T04:39:38;18.83;55.89
65876;HTU21D;52657;51.128;5.938;2022-09-01T04:42:04;18.82;55.92
65876;HTU21D;52657;51.128;5.938;2022-09-01T04:44:31;18.78;56.03
65876;HTU21D;52657;51.128;5.938;2022-09-01T04:46:57;18.73;55.96
65876;HTU21D;52657;51.128;5.938;2022-09-01T04:49:22;18.71;55.93
65876;HTU21D;52657;51.128;5.938;2022-09-01T04:51:52;18.65;55.91
65876;HTU21D;52657;51.128;5.938;2022-09-01T04:54:18;18.62;56.10
65876;HTU21D;52657;51.128;5.938;2022-09-01T04:56:47;18.57;56.30
65876;HTU21D;52657;51.128;5.938;2022-09-01T04:59:18;18.51;56.49
65876;HTU21D;52657;51.128;5.938;2022-09-01T05:01:47;18.48;56.64
65876;HTU21D;52657;51.128;5.938;2022-09-01T05:04:19;18.44;56.81
65876;HTU21D;52657;51.128;5.938;2022-09-01T05:06:50;18.43;56.89
65876;HTU21D;52657;51.128;5.938;2022-09-01T05:09:19;18.43;56.99
65876;HTU21D;52657;51.128;5.938;2022-09-01T05:12:17;18.46;56.92
65876;HTU21D;52657;51.128;5.938;2022-09-01T05:14:46;18.43;57.14
65876;HTU21D;52657;51.128;5.938;2022-09-01T05:17:15;18.43;57.30
65876;HTU21D;52657;51.128;5.938;2022-09-01T05:19:43;18.43;57.24
65876;HTU21D;52657;51.128;5.938;2022-09-01T05:22:13;18.44;57.36
65876;HTU21D;52657;51.128;5.938;2022-09-01T05:24:43;18.40;57.43
65876;HTU21D;52657;51.128;5.938;2022-09-01T05:27:09;18.36;57.74
65876;HTU21D;52657;51.128;5.938;2022-09-01T05:29:37;18.40;57.84
65876;HTU21D;52657;51.128;5.938;2022-09-01T05:32:07;18.41;57.83
65876;HTU21D;52657;51.128;5.938;2022-09-01T05:34:38;18.46;57.77
65876;HTU21D;52657;51.128;5.938;2022-09-01T05:37:09;18.38;57.91
65876;HTU21D;52657;51.128;5.938;2022-09-01T05:39:38;18.38;58.00
65876;HTU21D;52657;51.128;5.938;2022-09-01T05:42:05;18.36;58.14
65876;HTU21D;52657;51.128;5.938;2022-09-01T05:44:35;18.36;58.18
65876;HTU21D;52657;51.128;5.938;2022-09-01T05:47:03;18.33;58.38
65876;HTU21D;52657;51.128;5.938;2022-09-01T05:49:31;18.32;58.49
65876;HTU21D;52657;51.128;5.938;2022-09-01T05:52:00;18.34;58.54
65876;HTU21D;52657;51.128;5.938;2022-09-01T05:54:28;18.37;58.54
65876;HTU21D;52657;51.128;5.938;2022-09-01T05:56:56;18.40;58.64
65876;HTU21D;52657;51.128;5.938;2022-09-01T05:59:27;18.41;58.58
65876;HTU21D;52657;51.128;5.938;2022-09-01T06:02:11;18.48;58.69
65876;HTU21D;52657;51.128;5.938;2022-09-01T06:04:38;18.52;58.59
65876;HTU21D;52657;51.128;5.938;2022-09-01T06:07:16;18.55;58.48
65876;HTU21D;52657;51.128;5.938;2022-09-01T06:09:48;18.54;58.52
65876;HTU21D;52657;51.128;5.938;2022-09-01T06:12:17;18.56;58.64
65876;HTU21D;52657;51.128;5.938;2022-09-01T06:14:49;18.61;58.65
65876;HTU21D;52657;51.128;5.938;2022-09-01T06:17:18;18.63;58.88
65876;HTU21D;52657;51.128;5.938;2022-09-01T06:19:53;18.65;58.97
65876;HTU21D;52657;51.128;5.938;2022-09-01T06:22:25;18.71;58.96
65876;HTU21D;52657;51.128;5.938;2022-09-01T06:24:52;18.73;59.18
65876;HTU21D;52657;51.128;5.938;2022-09-01T06:27:20;18.80;59.09
65876;HTU21D;52657;51.128;5.938;2022-09-01T06:29:46;18.79;59.19
65876;HTU21D;52657;51.128;5.938;2022-09-01T06:32:25;18.83;59.64
65876;HTU21D;52657;51.128;5.938;2022-09-01T06:34:51;18.96;59.61
65876;HTU21D;52657;51.128;5.938;2022-09-01T06:37:17;19.02;59.45
65876;HTU21D;52657;51.128;5.938;2022-09-01T06:39:50;19.09;59.44
65876;HTU21D;52657;51.128;5.938;2022-09-01T06:42:16;19.15;59.38
65876;HTU21D;52657;51.128;5.938;2022-09-01T06:44:50;19.25;59.27
65876;HTU21D;52657;51.128;5.938;2022-09-01T06:47:18;19.51;59.35
65876;HTU21D;52657;51.128;5.938;2022-09-01T06:49:43;20.28;58.12
65876;HTU21D;52657;51.128;5.938;2022-09-01T06:52:15;21.19;55.62
65876;HTU21D;52657;51.128;5.938;2022-09-01T06:54:41;22.17;53.07
65876;HTU21D;52657;51.128;5.938;2022-09-01T06:57:08;23.09;50.24
65876;HTU21D;52657;51.128;5.938;2022-09-01T06:59:34;23.90;48.47
65876;HTU21D;52657;51.128;5.938;2022-09-01T07:02:04;24.75;45.93
65876;HTU21D;52657;51.128;5.938;2022-09-01T07:04:54;25.52;43.75
65876;HTU21D;52657;51.128;5.938;2022-09-01T07:07:19;26.17;41.74
65876;HTU21D;52657;51.128;5.938;2022-09-01T07:10:05;26.61;40.42
65876;HTU21D;52657;51.128;5.938;2022-09-01T07:12:37;27.10;39.88
65876;HTU21D;52657;51.128;5.938;2022-09-01T07:15:07;27.76;38.53
65876;HTU21D;52657;51.128;5.938;2022-09-01T07:17:32;28.37;37.34
65876;HTU21D;52657;51.128;5.938;2022-09-01T07:19:59;28.84;35.89
65876;HTU21D;52657;51.128;5.938;2022-09-01T07:22:25;29.16;35.16
65876;HTU21D;52657;51.128;5.938;2022-09-01T07:24:50;29.51;34.22
65876;HTU21D;52657;51.128;5.938;2022-09-01T07:27:54;29.75;33.34
65876;HTU21D;52657;51.128;5.938;2022-09-01T07:30:24;29.95;33.28
65876;HTU21D;52657;51.128;5.938;2022-09-01T07:32:50;30.16;32.51
65876;HTU21D;52657;51.128;5.938;2022-09-01T07:35:19;30.38;31.93
65876;HTU21D;52657;51.128;5.938;2022-09-01T07:37:48;30.48;31.77
65876;HTU21D;52657;51.128;5.938;2022-09-01T07:40:18;30.77;30.54
65876;HTU21D;52657;51.128;5.938;2022-09-01T07:42:53;30.54;31.06
65876;HTU21D;52657;51.128;5.938;2022-09-01T07:45:25;30.37;31.19
65876;HTU21D;52657;51.128;5.938;2022-09-01T07:47:56;30.25;30.92
65876;HTU21D;52657;51.128;5.938;2022-09-01T07:50:27;30.15;31.25
65876;HTU21D;52657;51.128;5.938;2022-09-01T07:52:55;30.36;30.99
65876;HTU21D;52657;51.128;5.938;2022-09-01T07:55:21;30.55;30.83
65876;HTU21D;52657;51.128;5.938;2022-09-01T07:57:47;30.59;30.61
65876;HTU21D;52657;51.128;5.938;2022-09-01T08:00:15;30.56;30.42
65876;HTU21D;52657;51.128;5.938;2022-09-01T08:02:47;30.61;30.30
65876;HTU21D;52657;51.128;5.938;2022-09-01T08:05:17;30.59;30.39
65876;HTU21D;52657;51.128;5.938;2022-09-01T08:07:48;30.84;30.03
65876;HTU21D;52657;51.128;5.938;2022-09-01T08:10:14;30.95;29.66
65876;HTU21D;52657;51.128;5.938;2022-09-01T08:12:41;30.91;29.68
65876;HTU21D;52657;51.128;5.938;2022-09-01T08:15:09;31.02;29.74
65876;HTU21D;52657;51.128;5.938;2022-09-01T08:17:37;31.38;29.73
65876;HTU21D;52657;51.128;5.938;2022-09-01T08:20:08;31.80;28.49
65876;HTU21D;52657;51.128;5.938;2022-09-01T08:22:53;31.90;28.54
65876;HTU21D;52657;51.128;5.938;2022-09-01T08:25:24;32.03;27.97
65876;HTU21D;52657;51.128;5.938;2022-09-01T08:27:52;32.07;27.63
65876;HTU21D;52657;51.128;5.938;2022-09-01T08:30:18;31.94;27.52
65876;HTU21D;52657;51.128;5.938;2022-09-01T08:32:44;31.90;27.58
65876;HTU21D;52657;51.128;5.938;2022-09-01T08:35:12;31.96;27.32
65876;HTU21D;52657;51.128;5.938;2022-09-01T08:37:39;31.86;27.19
65876;HTU21D;52657;51.128;5.938;2022-09-01T08:40:13;31.69;27.73
65876;HTU21D;52657;51.128;5.938;2022-09-01T08:45:34;31.88;27.69
65876;HTU21D;52657;51.128;5.938;2022-09-01T08:48:36;32.07;27.27
65876;HTU21D;52657;51.128;5.938;2022-09-01T08:51:14;31.89;27.36
65876;HTU21D;52657;51.128;5.938;2022-09-01T08:56:51;31.87;27.47
65876;HTU21D;52657;51.128;5.938;2022-09-01T08:59:23;31.95;27.24
65876;HTU21D;52657;51.128;5.938;2022-09-01T09:02:14;31.95;27.49
65876;HTU21D;52657;51.128;5.938;2022-09-01T09:11:05;32.77;26.71
65876;HTU21D;52657;51.128;5.938;2022-09-01T09:13:53;32.89;25.97
65876;HTU21D;52657;51.128;5.938;2022-09-01T09:16:34;32.89;25.78
65876;HTU21D;52657;51.128;5.938;2022-09-01T09:19:09;33.01;25.65
65876;HTU21D;52657;51.128;5.938;2022-09-01T09:21:41;32.94;25.32
65876;HTU21D;52657;51.128;5.938;2022-09-01T09:26:56;32.78;24.34
65876;HTU21D;52657;51.128;5.938;2022-09-01T09:29:24;32.78;23.72
65876;HTU21D;52657;51.128;5.938;2022-09-01T09:32:08;32.44;23.71
65876;HTU21D;52657;51.128;5.938;2022-09-01T09:34:41;32.24;24.56
65876;HTU21D;52657;51.128;5.938;2022-09-01T09:37:24;31.95;24.49
65876;HTU21D;52657;51.128;5.938;2022-09-01T09:40:13;31.80;23.98
65876;HTU21D;52657;51.128;5.938;2022-09-01T09:43:04;31.49;24.73
65876;HTU21D;52657;51.128;5.938;2022-09-01T09:45:34;31.39;24.63
65876;HTU21D;52657;51.128;5.938;2022-09-01T09:48:06;31.06;25.01
65876;HTU21D;52657;51.128;5.938;2022-09-01T09:50:40;30.92;25.68
65876;HTU21D;52657;51.128;5.938;2022-09-01T09:55:58;30.71;26.35
65876;HTU21D;52657;51.128;5.938;2022-09-01T09:58:33;30.65;26.42
65876;HTU21D;52657;51.128;5.938;2022-09-01T10:01:12;30.48;26.87
65876;HTU21D;52657;51.128;5.938;2022-09-01T10:03:47;30.47;26.79
65876;HTU21D;52657;51.128;5.938;2022-09-01T10:06:42;30.57;26.55
65876;HTU21D;52657;51.128;5.938;2022-09-01T10:09:36;30.40;25.58
65876;HTU21D;52657;51.128;5.938;2022-09-01T10:12:03;30.13;25.26
65876;HTU21D;52657;51.128;5.938;2022-09-01T10:17:05;29.54;25.80
65876;HTU21D;52657;51.128;5.938;2022-09-01T10:19:33;29.29;25.82
65876;HTU21D;52657;51.128;5.938;2022-09-01T10:22:01;29.12;25.97
65876;HTU21D;52657;51.128;5.938;2022-09-01T10:24:37;29.03;26.17
65876;HTU21D;52657;51.128;5.938;2022-09-01T10:27:31;29.00;26.14
65876;HTU21D;52657;51.128;5.938;2022-09-01T10:30:10;28.98;26.30
65876;HTU21D;52657;51.128;5.938;2022-09-01T10:32:42;28.93;26.23
65876;HTU21D;52657;51.128;5.938;2022-09-01T10:35:20;28.95;25.93
65876;HTU21D;52657;51.128;5.938;2022-09-01T10:37:49;29.01;25.75
65876;HTU21D;52657;51.128;5.938;2022-09-01T10:42:49;29.00;26.07
65876;HTU21D;52657;51.128;5.938;2022-09-01T10:45:36;29.08;26.04
65876;HTU21D;52657;51.128;5.938;2022-09-01T10:56:21;29.06;27.16
65876;HTU21D;52657;51.128;5.938;2022-09-01T10:59:10;28.98;27.80
65876;HTU21D;52657;51.128;5.938;2022-09-01T11:04:18;28.84;26.82
65876;HTU21D;52657;51.128;5.938;2022-09-01T11:06:59;28.82;27.14
65876;HTU21D;52657;51.128;5.938;2022-09-01T11:09:36;28.84;27.56
65876;HTU21D;52657;51.128;5.938;2022-09-01T11:17:37;28.76;26.31
65876;HTU21D;52657;51.128;5.938;2022-09-01T11:20:09;28.75;26.15
65876;HTU21D;52657;51.128;5.938;2022-09-01T11:33:51;28.73;26.10
65876;HTU21D;52657;51.128;5.938;2022-09-01T11:36:03;28.67;25.43
65876;HTU21D;52657;51.128;5.938;2022-09-01T11:38:51;28.67;25.81
65876;HTU21D;52657;51.128;5.938;2022-09-01T11:44:22;28.76;25.70
65876;HTU21D;52657;51.128;5.938;2022-09-01T11:46:51;28.78;25.77
65876;HTU21D;52657;51.128;5.938;2022-09-01T11:49:52;28.82;25.91
65876;HTU21D;52657;51.128;5.938;2022-09-01T11:52:22;28.85;25.89
65876;HTU21D;52657;51.128;5.938;2022-09-01T11:54:49;28.79;25.51
65876;HTU21D;52657;51.128;5.938;2022-09-01T11:59:46;28.79;25.73
65876;HTU21D;52657;51.128;5.938;2022-09-01T12:02:28;28.80;25.42
65876;HTU21D;52657;51.128;5.938;2022-09-01T12:04:56;28.82;25.53
65876;HTU21D;52657;51.128;5.938;2022-09-01T12:07:37;28.92;25.52
65876;HTU21D;52657;51.128;5.938;2022-09-01T12:10:34;28.90;25.44
65876;HTU21D;52657;51.128;5.938;2022-09-01T12:15:40;28.83;24.94
65876;HTU21D;52657;51.128;5.938;2022-09-01T12:18:20;28.74;24.70
65876;HTU21D;52657;51.128;5.938;2022-09-01T12:20:50;28.71;24.68
65876;HTU21D;52657;51.128;5.938;2022-09-01T12:25:49;28.86;25.08
65876;HTU21D;52657;51.128;5.938;2022-09-01T12:28:15;28.90;24.70
65876;HTU21D;52657;51.128;5.938;2022-09-01T12:30:42;28.83;24.53
65876;HTU21D;52657;51.128;5.938;2022-09-01T12:33:11;28.70;24.51
65876;HTU21D;52657;51.128;5.938;2022-09-01T12:35:38;28.75;24.58
65876;HTU21D;52657;51.128;5.938;2022-09-01T12:38:27;28.78;24.24
65876;HTU21D;52657;51.128;5.938;2022-09-01T12:40:55;28.80;24.12
65876;HTU21D;52657;51.128;5.938;2022-09-01T12:45:53;28.75;24.65
65876;HTU21D;52657;51.128;5.938;2022-09-01T12:48:26;28.78;24.04
65876;HTU21D;52657;51.128;5.938;2022-09-01T12:50:53;28.85;23.75
65876;HTU21D;52657;51.128;5.938;2022-09-01T12:53:22;28.91;23.46
65876;HTU21D;52657;51.128;5.938;2022-09-01T12:56:16;28.98;23.37
65876;HTU21D;52657;51.128;5.938;2022-09-01T12:58:47;28.97;23.27
65876;HTU21D;52657;51.128;5.938;2022-09-01T13:01:26;28.91;23.69
65876;HTU21D;52657;51.128;5.938;2022-09-01T13:06:37;29.09;23.65
65876;HTU21D;52657;51.128;5.938;2022-09-01T13:09:04;29.28;23.44
65876;HTU21D;52657;51.128;5.938;2022-09-01T13:11:29;29.37;23.51
65876;HTU21D;52657;51.128;5.938;2022-09-01T13:13:55;29.48;23.03
65876;HTU21D;52657;51.128;5.938;2022-09-01T13:16:24;29.52;22.86
65876;HTU21D;52657;51.128;5.938;2022-09-01T13:18:49;29.57;22.98
65876;HTU21D;52657;51.128;5.938;2022-09-01T13:21:15;29.62;22.99
65876;HTU21D;52657;51.128;5.938;2022-09-01T13:23:41;29.72;22.45
65876;HTU21D;52657;51.128;5.938;2022-09-01T13:26:07;29.72;22.28
65876;HTU21D;52657;51.128;5.938;2022-09-01T13:28:32;29.71;22.62
65876;HTU21D;52657;51.128;5.938;2022-09-01T13:31:01;29.68;22.82
65876;HTU21D;52657;51.128;5.938;2022-09-01T13:33:33;29.72;22.59
65876;HTU21D;52657;51.128;5.938;2022-09-01T13:36:00;29.76;22.39
65876;HTU21D;52657;51.128;5.938;2022-09-01T13:38:26;29.85;22.38
65876;HTU21D;52657;51.128;5.938;2022-09-01T13:40:52;29.91;22.21
65876;HTU21D;52657;51.128;5.938;2022-09-01T13:43:21;29.86;21.85
65876;HTU21D;52657;51.128;5.938;2022-09-01T13:45:48;29.82;22.20
65876;HTU21D;52657;51.128;5.938;2022-09-01T13:48:15;29.76;22.23
65876;HTU21D;52657;51.128;5.938;2022-09-01T13:50:44;29.70;21.95
65876;HTU21D;52657;51.128;5.938;2022-09-01T13:53:10;29.60;22.04
65876;HTU21D;52657;51.128;5.938;2022-09-01T13:55:41;29.38;22.21
65876;HTU21D;52657;51.128;5.938;2022-09-01T13:58:08;29.28;22.66
65876;HTU21D;52657;51.128;5.938;2022-09-01T14:00:40;29.32;22.76
65876;HTU21D;52657;51.128;5.938;2022-09-01T14:03:10;29.36;23.45
65876;HTU21D;52657;51.128;5.938;2022-09-01T14:05:41;29.49;23.61
65876;HTU21D;52657;51.128;5.938;2022-09-01T14:08:09;29.44;23.14
65876;HTU21D;52657;51.128;5.938;2022-09-01T14:10:43;29.45;23.52
65876;HTU21D;52657;51.128;5.938;2022-09-01T14:13:10;29.52;23.72
65876;HTU21D;52657;51.128;5.938;2022-09-01T14:15:39;29.60;23.64
65876;HTU21D;52657;51.128;5.938;2022-09-01T14:18:09;29.59;23.37
65876;HTU21D;52657;51.128;5.938;2022-09-01T14:20:37;29.63;22.98
65876;HTU21D;52657;51.128;5.938;2022-09-01T14:23:07;29.70;22.55
65876;HTU21D;52657;51.128;5.938;2022-09-01T14:25:35;29.71;22.63
65876;HTU21D;52657;51.128;5.938;2022-09-01T14:28:05;29.71;22.60
65876;HTU21D;52657;51.128;5.938;2022-09-01T14:30:32;29.61;22.65
65876;HTU21D;52657;51.128;5.938;2022-09-01T14:32:59;29.49;22.97
65876;HTU21D;52657;51.128;5.938;2022-09-01T14:35:25;29.43;23.32
65876;HTU21D;52657;51.128;5.938;2022-09-01T14:37:52;29.41;23.58
65876;HTU21D;52657;51.128;5.938;2022-09-01T14:40:20;29.44;23.88
65876;HTU21D;52657;51.128;5.938;2022-09-01T14:42:49;29.49;23.80
65876;HTU21D;52657;51.128;5.938;2022-09-01T14:45:25;29.51;23.24
65876;HTU21D;52657;51.128;5.938;2022-09-01T14:47:54;29.44;23.14
65876;HTU21D;52657;51.128;5.938;2022-09-01T14:50:22;29.52;23.06
65876;HTU21D;52657;51.128;5.938;2022-09-01T14:52:51;29.57;23.11
65876;HTU21D;52657;51.128;5.938;2022-09-01T14:55:17;29.61;22.95
65876;HTU21D;52657;51.128;5.938;2022-09-01T14:57:43;29.67;23.12
65876;HTU21D;52657;51.128;5.938;2022-09-01T15:00:10;29.68;22.99
65876;HTU21D;52657;51.128;5.938;2022-09-01T15:02:37;29.71;23.24
65876;HTU21D;52657;51.128;5.938;2022-09-01T15:05:04;29.73;23.12
65876;HTU21D;52657;51.128;5.938;2022-09-01T15:07:30;29.77;22.87
65876;HTU21D;52657;51.128;5.938;2022-09-01T15:09:56;29.79;23.24
65876;HTU21D;52657;51.128;5.938;2022-09-01T15:12:23;29.81;23.28
65876;HTU21D;52657;51.128;5.938;2022-09-01T15:14:49;29.80;23.43
65876;HTU21D;52657;51.128;5.938;2022-09-01T15:17:15;29.78;23.00
65876;HTU21D;52657;51.128;5.938;2022-09-01T15:19:42;29.76;23.25
65876;HTU21D;52657;51.128;5.938;2022-09-01T15:22:08;29.76;23.21
65876;HTU21D;52657;51.128;5.938;2022-09-01T15:24:37;29.67;23.45
65876;HTU21D;52657;51.128;5.938;2022-09-01T15:27:03;29.67;23.60
65876;HTU21D;52657;51.128;5.938;2022-09-01T15:29:31;29.71;23.74
65876;HTU21D;52657;51.128;5.938;2022-09-01T15:31:59;29.76;23.49
65876;HTU21D;52657;51.128;5.938;2022-09-01T15:34:28;29.77;23.30
65876;HTU21D;52657;51.128;5.938;2022-09-01T15:36:54;29.73;23.40
65876;HTU21D;52657;51.128;5.938;2022-09-01T15:39:20;29.73;23.37
65876;HTU21D;52657;51.128;5.938;2022-09-01T15:41:46;29.68;23.26
65876;HTU21D;52657;51.128;5.938;2022-09-01T15:44:12;29.61;23.33
65876;HTU21D;52657;51.128;5.938;2022-09-01T15:46:37;29.57;23.60
65876;HTU21D;52657;51.128;5.938;2022-09-01T15:49:08;29.58;23.62
65876;HTU21D;52657;51.128;5.938;2022-09-01T15:51:43;29.58;23.85
65876;HTU21D;52657;51.128;5.938;2022-09-01T15:54:12;29.65;23.88
65876;HTU21D;52657;51.128;5.938;2022-09-01T15:56:40;29.71;23.90
65876;HTU21D;52657;51.128;5.938;2022-09-01T15:59:06;29.77;23.99
65876;HTU21D;52657;51.128;5.938;2022-09-01T16:01:35;29.75;23.69
65876;HTU21D;52657;51.128;5.938;2022-09-01T16:04:05;29.79;23.42
65876;HTU21D;52657;51.128;5.938;2022-09-01T16:06:31;29.75;23.56
65876;HTU21D;52657;51.128;5.938;2022-09-01T16:08:57;29.75;23.69
65876;HTU21D;52657;51.128;5.938;2022-09-01T16:11:24;29.73;23.88
65876;HTU21D;52657;51.128;5.938;2022-09-01T16:13:51;29.64;23.88
65876;HTU21D;52657;51.128;5.938;2022-09-01T16:20:07;29.51;24.38
65876;HTU21D;52657;51.128;5.938;2022-09-01T16:25:01;29.58;24.46
65876;HTU21D;52657;51.128;5.938;2022-09-01T16:27:33;29.58;24.66
65876;HTU21D;52657;51.128;5.938;2022-09-01T16:30:18;29.58;24.94
65876;HTU21D;52657;51.128;5.938;2022-09-01T16:32:46;29.57;24.96
65876;HTU21D;52657;51.128;5.938;2022-09-01T16:35:13;29.54;25.18
65876;HTU21D;52657;51.128;5.938;2022-09-01T16:37:49;29.59;24.93
65876;HTU21D;52657;51.128;5.938;2022-09-01T16:43:53;29.59;24.67
65876;HTU21D;52657;51.128;5.938;2022-09-01T16:46:32;29.57;24.47
65876;HTU21D;52657;51.128;5.938;2022-09-01T16:49:26;29.52;24.63
65876;HTU21D;52657;51.128;5.938;2022-09-01T16:52:20;29.47;24.73
65876;HTU21D;52657;51.128;5.938;2022-09-01T17:00:15;29.35;25.28